Time;durP1;ratioP1;P1;durP2;ratioP2;P2;SDS_P1;SDS_P2;PMS_P1;PMS_P2;Temp;Humidity;BMP_temperature;BMP_pressure;BME280_temperature;BME280_humidity;BME280_pressure;Samples;Min_cycle;Max_cycle;Signal;HPM_P1;HPM_P2
2022/01/15 00:00:40;;;;;;;14.03;6.60;;;;;;;;;;5073147;28;20247;-76
2022/01/15 00:03:10;;;;;;;8.30;5.00;;;;;;;;;;5071731;28;20190;-75
2022/01/15 00:05:39;;;;;;;7.00;4.03;;;;;;;;;;5058543;28;20277;-73
2022/01/15 00:08:07;;;;;;;7.93;4.53;;;;;;;;;;5054713;28;20227;-74
2022/01/15 00:10:36;;;;;;;13.17;7.00;;;;;;;;;;5072876;28;20213;-76
2022/01/15 00:13:08;;;;;;;7.53;3.93;;;;;;;;;;5072888;28;20195;-75
2022/01/15 00:15:41;;;;;;;10.73;5.27;;;;;;;;;;5072548;28;20199;-75
2022/01/15 00:18:13;;;;;;;9.03;4.13;;;;;;;;;;5073093;28;20642;-76
2022/01/15 00:20:42;;;;;;;10.53;6.00;;;;;;;;;;5074408;28;20199;-74
2022/01/15 00:23:11;;;;;;;8.40;5.10;;;;;;;;;;5076967;28;20209;-76
2022/01/15 00:25:39;;;;;;;6.60;3.80;;;;;;;;;;5077053;28;20202;-77
2022/01/15 00:28:07;;;;;;;7.77;4.03;;;;;;;;;;5076840;28;20249;-76
2022/01/15 00:30:36;;;;;;;5.43;3.20;;;;;;;;;;5076556;28;20202;-76
2022/01/15 00:33:04;;;;;;;8.83;5.30;;;;;;;;;;5077128;28;20207;-76
2022/01/15 00:35:35;;;;;;;5.73;3.03;;;;;;;;;;5076709;28;20202;-76
2022/01/15 00:38:03;;;;;;;4.23;3.03;;;;;;;;;;5076763;28;20230;-75
2022/01/15 00:40:31;;;;;;;8.03;4.73;;;;;;;;;;5076835;28;20246;-77
2022/01/15 00:43:00;;;;;;;6.70;4.00;;;;;;;;;;5077380;28;20198;-74
2022/01/15 00:45:32;;;;;;;8.40;3.60;;;;;;;;;;5058371;28;20207;-75
2022/01/15 00:48:02;;;;;;;7.03;3.30;;;;;;;;;;5056609;28;20234;-74
2022/01/15 00:50:30;;;;;;;9.00;4.90;;;;;;;;;;5068410;28;20305;-77
2022/01/15 00:53:00;;;;;;;5.00;2.57;;;;;;;;;;5076451;28;20198;-73
2022/01/15 00:55:29;;;;;;;5.17;3.20;;;;;;;;;;5076291;28;20622;-77
2022/01/15 00:57:58;;;;;;;15.60;6.60;;;;;;;;;;5076504;28;20227;-76
2022/01/15 01:00:27;;;;;;;13.70;7.33;;;;;;;;;;5076403;28;20263;-76
2022/01/15 01:02:55;;;;;;;8.63;4.70;;;;;;;;;;5076522;28;20194;-77
2022/01/15 01:05:24;;;;;;;7.63;4.40;;;;;;;;;;5076057;28;20260;-75
2022/01/15 01:07:53;;;;;;;9.33;4.17;;;;;;;;;;5076196;28;20762;-74
2022/01/15 01:13:32;;;;;;;6.33;3.40;;;;;;;;;;5065556;28;20206;-74
2022/01/15 01:22:27;;;;;;;11.80;6.30;;;;;;;;;;5061580;28;20186;-72
2022/01/15 01:24:41;;;;;;;11.60;6.03;;;;;;;;;;5075808;28;20601;-77
2022/01/15 01:27:17;;;;;;;7.53;4.33;;;;;;;;;;5076180;28;20227;-76
2022/01/15 01:30:10;;;;;;;6.13;3.20;;;;;;;;;;5075936;28;20265;-76
2022/01/15 01:32:48;;;;;;;8.20;4.17;;;;;;;;;;5074964;28;20214;-74
2022/01/15 01:35:29;;;;;;;14.40;7.68;;;;;;;;;;4721438;28;9999956;-76
2022/01/15 01:38:06;;;;;;;15.73;8.40;;;;;;;;;;5065389;28;20630;-77
2022/01/15 01:40:40;;;;;;;12.07;6.23;;;;;;;;;;5073190;28;20244;-75
2022/01/15 01:43:39;;;;;;;14.87;7.67;;;;;;;;;;5073353;28;20202;-75
2022/01/15 01:46:17;;;;;;;5.73;3.20;;;;;;;;;;5064007;28;20206;-75
2022/01/15 01:48:46;;;;;;;4.13;1.93;;;;;;;;;;5075438;28;20310;-74
2022/01/15 01:51:21;;;;;;;12.43;6.83;;;;;;;;;;5075646;28;20210;-75
2022/01/15 01:53:50;;;;;;;5.40;3.10;;;;;;;;;;5075661;28;20201;-76
2022/01/15 01:56:19;;;;;;;13.07;7.10;;;;;;;;;;5075755;28;20206;-76
2022/01/15 01:58:49;;;;;;;12.00;6.77;;;;;;;;;;5075080;28;20210;-75
2022/01/15 02:01:18;;;;;;;3.53;1.80;;;;;;;;;;5075053;28;20619;-73
2022/01/15 02:03:46;;;;;;;6.20;3.50;;;;;;;;;;5074990;28;20206;-73
2022/01/15 02:06:15;;;;;;;12.13;5.73;;;;;;;;;;5075027;28;20622;-75
2022/01/15 02:08:44;;;;;;;10.10;4.63;;;;;;;;;;5075331;28;20276;-74
2022/01/15 02:11:13;;;;;;;14.93;7.03;;;;;;;;;;5074830;28;20218;-73
2022/01/15 02:13:42;;;;;;;15.53;8.10;;;;;;;;;;5075306;28;20264;-75
2022/01/15 02:16:12;;;;;;;6.93;2.90;;;;;;;;;;5074903;28;20230;-74
2022/01/15 02:18:41;;;;;;;9.80;4.27;;;;;;;;;;5074669;28;20276;-76
2022/01/15 02:23:58;;;;;;;7.13;4.13;;;;;;;;;;5074395;28;20199;-75
2022/01/15 02:26:27;;;;;;;9.80;4.37;;;;;;;;;;5074821;28;20202;-75
2022/01/15 02:28:58;;;;;;;12.83;6.17;;;;;;;;;;5074684;28;20276;-74
2022/01/15 02:31:27;;;;;;;16.80;7.93;;;;;;;;;;5074937;28;20233;-77
2022/01/15 02:33:56;;;;;;;12.53;6.80;;;;;;;;;;5074758;28;20202;-74
2022/01/15 02:36:27;;;;;;;4.63;2.20;;;;;;;;;;5074797;28;20256;-74
2022/01/15 02:38:56;;;;;;;11.63;5.50;;;;;;;;;;5074153;28;20265;-73
2022/01/15 02:41:28;;;;;;;6.13;2.43;;;;;;;;;;5074568;28;20195;-75
2022/01/15 02:43:57;;;;;;;2.53;0.87;;;;;;;;;;5074687;28;20202;-76
2022/01/15 02:48:00;;;;;;;1.10;0.47;;;;;;;;;;5073956;28;20206;-73
2022/01/15 02:49:23;;;;;;;7.10;3.80;;;;;;;;;;5073982;28;20275;-76
2022/01/15 02:51:53;;;;;;;11.13;4.90;;;;;;;;;;5073998;28;20623;-73
2022/01/15 02:54:22;;;;;;;0.20;0.20;;;;;;;;;;5074393;28;20785;-76
2022/01/15 02:56:50;;;;;;;4.07;1.70;;;;;;;;;;5074297;28;20197;-76
2022/01/15 02:59:20;;;;;;;16.23;7.30;;;;;;;;;;5074040;28;20207;-75
2022/01/15 03:01:49;;;;;;;12.00;5.50;;;;;;;;;;5073932;28;20190;-73
2022/01/15 03:04:18;;;;;;;5.00;2.27;;;;;;;;;;5073943;28;20203;-74
2022/01/15 03:06:47;;;;;;;7.43;2.47;;;;;;;;;;5073861;28;20232;-75
2022/01/15 03:09:17;;;;;;;9.23;3.70;;;;;;;;;;5073901;28;20202;-75
2022/01/15 03:11:45;;;;;;;10.83;4.70;;;;;;;;;;5073831;28;20698;-76
2022/01/15 03:14:18;;;;;;;7.40;2.83;;;;;;;;;;5073809;28;20233;-74
2022/01/15 03:16:46;;;;;;;2.97;1.40;;;;;;;;;;5073614;28;20193;-77
2022/01/15 03:19:35;;;;;;;9.93;4.33;;;;;;;;;;5073568;28;20284;-75
2022/01/15 03:22:03;;;;;;;1.13;0.63;;;;;;;;;;5073848;28;20207;-76
2022/01/15 03:24:33;;;;;;;6.60;2.90;;;;;;;;;;5073556;28;20734;-73
2022/01/15 03:27:02;;;;;;;10.73;4.50;;;;;;;;;;5073905;28;20301;-74
2022/01/15 03:29:30;;;;;;;11.50;4.63;;;;;;;;;;5073767;28;20255;-75
2022/01/15 03:31:58;;;;;;;11.40;3.93;;;;;;;;;;5073123;28;20272;-76
2022/01/15 03:34:27;;;;;;;11.50;4.90;;;;;;;;;;5073819;28;20264;-76
2022/01/15 03:36:55;;;;;;;5.77;2.33;;;;;;;;;;5073203;28;20698;-73
2022/01/15 03:39:23;;;;;;;13.37;5.07;;;;;;;;;;5073348;28;20611;-73
2022/01/15 03:41:53;;;;;;;13.03;5.10;;;;;;;;;;5073449;28;20719;-74
2022/01/15 03:44:22;;;;;;;10.53;5.53;;;;;;;;;;5071747;28;20205;-72
2022/01/15 03:46:50;;;;;;;11.03;4.90;;;;;;;;;;5072714;28;20681;-75
2022/01/15 03:49:19;;;;;;;9.33;4.27;;;;;;;;;;5073352;28;20252;-76
2022/01/15 03:51:47;;;;;;;6.63;3.10;;;;;;;;;;5073255;28;20237;-76
2022/01/15 03:54:15;;;;;;;6.07;2.93;;;;;;;;;;5073445;28;20327;-76
2022/01/15 03:56:44;;;;;;;5.30;2.87;;;;;;;;;;5073202;28;20210;-73
2022/01/15 03:59:13;;;;;;;6.10;2.90;;;;;;;;;;5070485;28;20228;-74
2022/01/15 04:01:42;;;;;;;2.13;1.03;;;;;;;;;;5053642;28;20203;-76
2022/01/15 04:04:11;;;;;;;0.63;0.20;;;;;;;;;;5053019;28;20249;-74
2022/01/15 04:06:41;;;;;;;0.00;0.00;;;;;;;;;;5066528;28;20665;-74
2022/01/15 04:09:09;;;;;;;0.10;0.10;;;;;;;;;;5073370;28;20602;-73
2022/01/15 04:11:38;;;;;;;2.33;1.20;;;;;;;;;;5073170;28;20222;-74
2022/01/15 04:14:06;;;;;;;3.53;1.70;;;;;;;;;;5073187;28;20259;-77
2022/01/15 04:16:36;;;;;;;4.40;2.30;;;;;;;;;;5072830;28;20236;-74
2022/01/15 04:19:06;;;;;;;5.73;2.80;;;;;;;;;;5072679;28;20677;-74
2022/01/15 04:21:35;;;;;;;3.90;1.50;;;;;;;;;;5073136;28;20263;-76
2022/01/15 04:24:04;;;;;;;4.70;1.80;;;;;;;;;;5073222;28;20202;-76
2022/01/15 04:26:32;;;;;;;4.33;2.17;;;;;;;;;;5073142;28;20199;-76
2022/01/15 04:29:04;;;;;;;6.00;1.80;;;;;;;;;;5072534;28;20260;-76
2022/01/15 04:31:45;;;;;;;3.20;1.53;;;;;;;;;;5072738;28;20276;-75
2022/01/15 04:34:16;;;;;;;2.10;1.20;;;;;;;;;;5070256;28;20796;-73
2022/01/15 04:36:45;;;;;;;3.10;1.40;;;;;;;;;;5072876;28;20256;-75
2022/01/15 04:39:13;;;;;;;1.90;1.10;;;;;;;;;;5072753;28;20271;-76
2022/01/15 04:41:42;;;;;;;2.57;1.07;;;;;;;;;;5073134;28;20272;-73
2022/01/15 04:44:10;;;;;;;3.40;1.27;;;;;;;;;;5071940;28;20271;-73
2022/01/15 04:46:39;;;;;;;2.80;1.40;;;;;;;;;;5072342;28;20199;-76
2022/01/15 04:49:08;;;;;;;2.20;1.27;;;;;;;;;;5072298;28;20198;-77
2022/01/15 04:51:38;;;;;;;3.10;1.73;;;;;;;;;;5072793;28;20279;-76
2022/01/15 04:54:07;;;;;;;2.47;1.10;;;;;;;;;;5072536;28;20195;-77
2022/01/15 04:56:35;;;;;;;3.20;1.60;;;;;;;;;;5072471;28;20230;-75
2022/01/15 04:59:04;;;;;;;1.80;1.03;;;;;;;;;;5072610;28;20214;-76
2022/01/15 05:01:32;;;;;;;0.00;0.00;;;;;;;;;;5072444;28;20236;-76
2022/01/15 05:04:01;;;;;;;1.13;0.60;;;;;;;;;;5072393;28;20663;-76
2022/01/15 05:06:29;;;;;;;0.93;0.43;;;;;;;;;;5072145;28;20223;-74
2022/01/15 05:09:04;;;;;;;1.70;0.93;;;;;;;;;;5067404;28;20655;-75
2022/01/15 05:11:44;;;;;;;0.53;0.37;;;;;;;;;;5064829;28;20677;-75
2022/01/15 05:14:13;;;;;;;2.37;1.50;;;;;;;;;;5076123;28;20198;-74
2022/01/15 05:16:42;;;;;;;1.17;0.60;;;;;;;;;;5076116;28;20820;-73
2022/01/15 05:19:10;;;;;;;0.00;0.00;;;;;;;;;;5075885;28;20203;-76
2022/01/15 05:21:39;;;;;;;0.40;0.20;;;;;;;;;;5075823;28;20253;-75
2022/01/15 05:24:09;;;;;;;1.43;0.63;;;;;;;;;;5076379;28;20272;-75
2022/01/15 05:26:37;;;;;;;0.90;0.63;;;;;;;;;;5076125;28;20210;-73
2022/01/15 05:29:05;;;;;;;1.50;0.83;;;;;;;;;;5075504;28;20662;-73
2022/01/15 05:31:34;;;;;;;2.47;1.27;;;;;;;;;;5075413;28;20219;-74
2022/01/15 05:34:02;;;;;;;3.00;1.60;;;;;;;;;;5075859;28;20198;-73
2022/01/15 05:36:34;;;;;;;0.10;0.10;;;;;;;;;;5075474;28;20202;-76
2022/01/15 05:39:02;;;;;;;2.23;1.27;;;;;;;;;;5075466;28;20210;-74
2022/01/15 05:41:32;;;;;;;5.33;2.13;;;;;;;;;;5075746;28;20638;-74
2022/01/15 05:44:03;;;;;;;0.83;0.30;;;;;;;;;;5075235;28;20256;-75
2022/01/15 05:46:33;;;;;;;2.67;1.07;;;;;;;;;;5075427;28;20610;-76
2022/01/15 05:49:02;;;;;;;0.00;0.00;;;;;;;;;;5075150;28;20199;-77
2022/01/15 05:51:31;;;;;;;3.20;1.37;;;;;;;;;;5075414;28;20229;-76
2022/01/15 05:54:00;;;;;;;0.07;0.07;;;;;;;;;;5075364;28;20202;-74
2022/01/15 05:56:29;;;;;;;0.00;0.00;;;;;;;;;;5075043;28;20199;-76
2022/01/15 05:58:59;;;;;;;1.03;0.50;;;;;;;;;;5075161;28;20199;-77
2022/01/15 06:01:27;;;;;;;0.00;0.00;;;;;;;;;;5075080;28;20251;-77
2022/01/15 06:03:56;;;;;;;0.00;0.00;;;;;;;;;;5075271;28;20206;-76
2022/01/15 06:06:24;;;;;;;0.33;0.13;;;;;;;;;;5074877;28;20232;-76
2022/01/15 06:08:52;;;;;;;1.37;0.90;;;;;;;;;;5074926;28;20226;-76
2022/01/15 06:11:23;;;;;;;0.20;0.10;;;;;;;;;;5074967;28;20252;-76
2022/01/15 06:13:52;;;;;;;0.00;0.00;;;;;;;;;;5074900;28;20731;-75
2022/01/15 06:16:22;;;;;;;0.00;0.00;;;;;;;;;;5074847;28;20207;-73
2022/01/15 06:18:50;;;;;;;0.63;0.50;;;;;;;;;;5074575;28;20220;-77
2022/01/15 06:21:19;;;;;;;2.07;1.07;;;;;;;;;;5074721;28;20206;-75
2022/01/15 06:23:47;;;;;;;2.57;0.77;;;;;;;;;;5074683;28;20195;-75
2022/01/15 06:26:16;;;;;;;1.23;0.47;;;;;;;;;;5080024;28;20248;-75
2022/01/15 06:28:44;;;;;;;1.13;0.60;;;;;;;;;;5074457;28;20268;-76
2022/01/15 06:31:15;;;;;;;0.83;0.30;;;;;;;;;;5074837;28;20244;-76
2022/01/15 06:33:44;;;;;;;0.40;0.20;;;;;;;;;;5074478;28;20286;-76
2022/01/15 06:36:13;;;;;;;0.40;0.20;;;;;;;;;;5074136;28;20206;-76
2022/01/15 06:38:41;;;;;;;0.00;0.00;;;;;;;;;;5071590;28;20222;-73
2022/01/15 06:41:10;;;;;;;0.77;0.20;;;;;;;;;;5074588;28;20206;-73
2022/01/15 06:43:39;;;;;;;0.00;0.00;;;;;;;;;;5074340;28;20597;-75
2022/01/15 06:46:07;;;;;;;0.00;0.00;;;;;;;;;;5054710;28;20297;-74
2022/01/15 06:48:36;;;;;;;0.00;0.00;;;;;;;;;;5074079;28;20309;-74
2022/01/15 06:51:06;;;;;;;0.00;0.00;;;;;;;;;;5074157;28;20210;-75
2022/01/15 06:53:34;;;;;;;0.00;0.00;;;;;;;;;;5073783;28;20264;-73
2022/01/15 06:56:02;;;;;;;0.00;0.00;;;;;;;;;;5074521;28;20252;-74
2022/01/15 06:58:31;;;;;;;0.00;0.00;;;;;;;;;;5074544;28;20210;-74
2022/01/15 07:00:59;;;;;;;0.00;0.00;;;;;;;;;;5083459;28;20197;-75
2022/01/15 07:03:28;;;;;;;0.00;0.00;;;;;;;;;;5082194;28;20278;-73
2022/01/15 07:05:56;;;;;;;0.00;0.00;;;;;;;;;;5073856;28;20244;-76
2022/01/15 07:08:26;;;;;;;0.00;0.00;;;;;;;;;;5081666;28;20218;-77
2022/01/15 07:10:54;;;;;;;0.00;0.00;;;;;;;;;;5075022;28;20195;-77
2022/01/15 07:13:23;;;;;;;0.00;0.00;;;;;;;;;;5073471;28;20226;-74
2022/01/15 07:15:51;;;;;;;0.00;0.00;;;;;;;;;;5073951;28;20206;-77
2022/01/15 07:18:20;;;;;;;0.00;0.00;;;;;;;;;;5085370;28;20221;-73
2022/01/15 07:20:51;;;;;;;0.00;0.00;;;;;;;;;;5072784;28;20240;-76
2022/01/15 07:23:19;;;;;;;0.00;0.00;;;;;;;;;;5073658;28;20551;-75
2022/01/15 07:25:49;;;;;;;0.00;0.00;;;;;;;;;;5073983;28;20669;-77
2022/01/15 07:28:19;;;;;;;0.00;0.00;;;;;;;;;;5072820;28;20241;-73
2022/01/15 07:30:47;;;;;;;0.00;0.00;;;;;;;;;;5075185;28;20291;-77
2022/01/15 07:33:15;;;;;;;0.00;0.00;;;;;;;;;;5073592;28;20236;-72
2022/01/15 07:35:44;;;;;;;0.00;0.00;;;;;;;;;;5075854;28;20255;-77
2022/01/15 07:38:13;;;;;;;0.00;0.00;;;;;;;;;;5073687;28;20284;-74
2022/01/15 07:40:42;;;;;;;0.00;0.00;;;;;;;;;;5073311;28;20606;-74
2022/01/15 07:43:12;;;;;;;0.00;0.00;;;;;;;;;;5072014;28;20194;-74
2022/01/15 07:45:44;;;;;;;0.00;0.00;;;;;;;;;;5076296;28;20247;-75
2022/01/15 07:48:12;;;;;;;0.00;0.00;;;;;;;;;;5080207;28;20279;-75
2022/01/15 07:50:40;;;;;;;0.00;0.00;;;;;;;;;;5077048;28;20197;-76
2022/01/15 07:53:09;;;;;;;0.00;0.00;;;;;;;;;;5089396;28;20271;-75
2022/01/15 07:55:37;;;;;;;0.00;0.00;;;;;;;;;;5068436;28;20207;-76
2022/01/15 07:58:07;;;;;;;0.00;0.00;;;;;;;;;;5069947;28;20218;-74
2022/01/15 08:00:37;;;;;;;0.00;0.00;;;;;;;;;;5067533;28;20198;-76
2022/01/15 08:03:06;;;;;;;0.00;0.00;;;;;;;;;;5073218;28;20205;-73
2022/01/15 08:05:34;;;;;;;0.00;0.00;;;;;;;;;;5078641;28;20552;-76
2022/01/15 08:08:03;;;;;;;0.00;0.00;;;;;;;;;;5070381;28;20607;-75
2022/01/15 08:10:34;;;;;;;0.00;0.00;;;;;;;;;;5069532;28;20202;-74
2022/01/15 08:13:02;;;;;;;0.00;0.00;;;;;;;;;;5069401;28;20211;-75
2022/01/15 08:15:31;;;;;;;0.00;0.00;;;;;;;;;;5072791;28;20206;-76
2022/01/15 08:18:01;;;;;;;0.00;0.00;;;;;;;;;;5072836;28;20214;-75
2022/01/15 08:20:30;;;;;;;0.00;0.00;;;;;;;;;;5076564;28;20193;-76
2022/01/15 08:22:58;;;;;;;0.00;0.00;;;;;;;;;;5093448;28;20342;-76
2022/01/15 08:25:27;;;;;;;0.00;0.00;;;;;;;;;;5074451;28;20202;-77
2022/01/15 08:27:56;;;;;;;0.00;0.00;;;;;;;;;;5071864;28;20267;-76
2022/01/15 08:30:24;;;;;;;0.00;0.00;;;;;;;;;;5071107;28;20256;-74
2022/01/15 08:32:53;;;;;;;0.00;0.00;;;;;;;;;;5072846;28;20218;-76
2022/01/15 08:35:23;;;;;;;0.00;0.00;;;;;;;;;;5087190;28;20202;-73
2022/01/15 08:37:51;;;;;;;0.00;0.00;;;;;;;;;;5058305;28;20214;-76
2022/01/15 08:40:20;;;;;;;0.00;0.00;;;;;;;;;;5085893;28;20209;-74
2022/01/15 08:42:49;;;;;;;0.00;0.00;;;;;;;;;;5094786;28;20205;-76
2022/01/15 08:45:19;;;;;;;0.00;0.00;;;;;;;;;;5076595;28;20214;-74
2022/01/15 08:47:47;;;;;;;0.00;0.00;;;;;;;;;;5073700;28;20210;-74
2022/01/15 08:50:16;;;;;;;0.00;0.00;;;;;;;;;;5077310;28;20202;-75
2022/01/15 08:52:46;;;;;;;0.00;0.00;;;;;;;;;;5080174;28;20202;-75
2022/01/15 08:55:15;;;;;;;0.00;0.00;;;;;;;;;;5076427;28;20692;-73
2022/01/15 08:57:45;;;;;;;0.00;0.00;;;;;;;;;;5076476;28;20222;-77
2022/01/15 09:00:15;;;;;;;0.00;0.00;;;;;;;;;;5075471;28;20252;-76
2022/01/15 09:02:44;;;;;;;0.00;0.00;;;;;;;;;;5076475;28;20190;-75
2022/01/15 09:05:13;;;;;;;0.00;0.00;;;;;;;;;;5092381;28;20236;-74
2022/01/15 09:07:42;;;;;;;0.00;0.00;;;;;;;;;;5075889;28;20226;-76
2022/01/15 09:10:11;;;;;;;0.00;0.00;;;;;;;;;;5072650;28;20669;-77
2022/01/15 09:12:41;;;;;;;0.00;0.00;;;;;;;;;;5076303;28;20260;-78
2022/01/15 09:15:28;;;;;;;0.00;0.00;;;;;;;;;;5084861;28;20195;-76
2022/01/15 09:17:57;;;;;;;0.00;0.00;;;;;;;;;;5073991;28;20229;-75
2022/01/15 09:20:25;;;;;;;0.00;0.00;;;;;;;;;;5073981;28;20203;-77
2022/01/15 09:22:54;;;;;;;0.00;0.00;;;;;;;;;;5061847;28;20198;-74
2022/01/15 09:25:25;;;;;;;0.00;0.00;;;;;;;;;;5074981;28;20650;-73
2022/01/15 09:30:39;;;;;;;0.00;0.00;;;;;;;;;;5062221;28;20250;-76
2022/01/15 09:33:07;;;;;;;0.00;0.00;;;;;;;;;;5084279;28;20198;-74
2022/01/15 09:35:37;;;;;;;0.00;0.00;;;;;;;;;;5075982;28;20252;-73
2022/01/15 09:38:06;;;;;;;0.00;0.00;;;;;;;;;;5080098;28;20250;-74
2022/01/15 09:40:38;;;;;;;0.00;0.00;;;;;;;;;;5075970;28;20206;-76
2022/01/15 09:43:08;;;;;;;0.00;0.00;;;;;;;;;;5075525;28;20229;-73
2022/01/15 09:45:39;;;;;;;0.00;0.00;;;;;;;;;;5075752;28;20223;-76
2022/01/15 09:48:08;;;;;;;0.00;0.00;;;;;;;;;;5075486;28;20701;-73
2022/01/15 09:50:37;;;;;;;0.00;0.00;;;;;;;;;;5074383;28;20683;-77
2022/01/15 09:53:06;;;;;;;0.00;0.00;;;;;;;;;;5056937;28;20265;-75
2022/01/15 09:55:36;;;;;;;0.00;0.00;;;;;;;;;;5070367;28;20222;-77
2022/01/15 09:58:05;;;;;;;0.00;0.00;;;;;;;;;;5073347;28;20231;-76
2022/01/15 10:00:33;;;;;;;0.00;0.00;;;;;;;;;;5074483;28;20198;-74
2022/01/15 10:03:02;;;;;;;0.00;0.00;;;;;;;;;;5070099;28;20670;-74
2022/01/15 10:05:31;;;;;;;0.00;0.00;;;;;;;;;;5080099;28;20202;-76
2022/01/15 10:08:01;;;;;;;0.00;0.00;;;;;;;;;;5073428;28;20221;-73
2022/01/15 10:10:30;;;;;;;0.00;0.00;;;;;;;;;;5074122;28;20205;-76
2022/01/15 10:13:12;;;;;;;0.00;0.00;;;;;;;;;;5073886;28;20548;-73
2022/01/15 10:15:40;;;;;;;0.00;0.00;;;;;;;;;;5071335;28;20218;-73
2022/01/15 10:18:25;;;;;;;0.00;0.00;;;;;;;;;;5074282;28;20218;-76
2022/01/15 10:20:55;;;;;;;0.00;0.00;;;;;;;;;;5074778;28;20191;-76
2022/01/15 10:23:24;;;;;;;0.00;0.00;;;;;;;;;;5074964;28;20191;-73
2022/01/15 10:26:11;;;;;;;0.00;0.00;;;;;;;;;;5054831;28;20237;-75
2022/01/15 10:28:50;;;;;;;0.00;0.00;;;;;;;;;;5054941;28;20219;-75
2022/01/15 10:31:19;;;;;;;0.00;0.00;;;;;;;;;;5056662;28;20195;-76
2022/01/15 10:33:48;;;;;;;0.00;0.00;;;;;;;;;;5064210;28;20230;-76
2022/01/15 10:36:20;;;;;;;0.00;0.00;;;;;;;;;;5074172;28;20256;-75
2022/01/15 10:38:49;;;;;;;0.00;0.00;;;;;;;;;;5073019;28;20619;-73
2022/01/15 10:41:34;;;;;;;0.00;0.00;;;;;;;;;;5074244;28;20194;-73
2022/01/15 10:44:24;;;;;;;0.00;0.00;;;;;;;;;;5074739;28;20221;-74
2022/01/15 10:47:01;;;;;;;0.00;0.00;;;;;;;;;;5074345;28;20202;-76
2022/01/15 10:49:30;;;;;;;0.00;0.00;;;;;;;;;;5074406;28;20205;-73
2022/01/15 10:52:06;;;;;;;0.00;0.00;;;;;;;;;;5074193;28;20210;-75
2022/01/15 10:54:34;;;;;;;0.00;0.00;;;;;;;;;;5073829;28;20297;-74
2022/01/15 10:57:07;;;;;;;0.00;0.00;;;;;;;;;;5073963;28;20252;-76
2022/01/15 10:59:36;;;;;;;0.00;0.00;;;;;;;;;;5074276;28;20260;-74
2022/01/15 11:02:19;;;;;;;0.00;0.00;;;;;;;;;;5074213;28;20221;-73
2022/01/15 11:04:49;;;;;;;0.00;0.00;;;;;;;;;;5071726;28;20202;-75
2022/01/15 11:07:19;;;;;;;0.00;0.00;;;;;;;;;;5074141;28;20234;-73
2022/01/15 11:09:50;;;;;;;0.00;0.00;;;;;;;;;;5073929;28;20187;-74
2022/01/15 11:12:19;;;;;;;0.00;0.00;;;;;;;;;;5074122;28;20202;-75
2022/01/15 11:14:48;;;;;;;0.00;0.00;;;;;;;;;;5073578;28;20218;-76
2022/01/15 11:17:17;;;;;;;0.00;0.00;;;;;;;;;;5075012;28;20301;-76
2022/01/15 11:19:46;;;;;;;0.00;0.00;;;;;;;;;;5072899;28;20211;-74
2022/01/15 11:22:21;;;;;;;0.00;0.00;;;;;;;;;;5073371;28;20653;-75
2022/01/15 11:24:50;;;;;;;0.00;0.00;;;;;;;;;;5064580;28;20186;-73
2022/01/15 11:27:19;;;;;;;0.00;0.00;;;;;;;;;;5073753;28;20218;-76
2022/01/15 11:29:48;;;;;;;0.00;0.00;;;;;;;;;;5077594;27;20619;-76
2022/01/15 11:32:18;;;;;;;0.00;0.00;;;;;;;;;;5073989;28;20663;-73
2022/01/15 11:35:00;;;;;;;0.00;0.00;;;;;;;;;;5073369;28;20214;-76
2022/01/15 11:37:40;;;;;;;0.00;0.00;;;;;;;;;;5073462;28;20256;-76
2022/01/15 11:40:23;;;;;;;0.00;0.00;;;;;;;;;;5081715;28;20209;-75
2022/01/15 11:42:51;;;;;;;0.00;0.00;;;;;;;;;;5065544;28;20709;-75
2022/01/15 11:45:35;;;;;;;0.00;0.00;;;;;;;;;;5079449;28;20271;-76
2022/01/15 11:48:20;;;;;;;0.00;0.00;;;;;;;;;;5052779;28;20223;-76
2022/01/15 11:51:14;;;;;;;0.00;0.00;;;;;;;;;;5071338;28;20198;-76
2022/01/15 11:53:54;;;;;;;0.00;0.00;;;;;;;;;;5064942;28;20199;-76
2022/01/15 11:56:23;;;;;;;0.00;0.00;;;;;;;;;;5071695;28;20218;-73
2022/01/15 11:58:52;;;;;;;0.00;0.00;;;;;;;;;;5072743;28;20249;-74
2022/01/15 12:01:40;;;;;;;0.00;0.00;;;;;;;;;;5073356;28;20199;-73
2022/01/15 12:04:24;;;;;;;0.00;0.00;;;;;;;;;;5072004;28;20290;-74
2022/01/15 12:07:07;;;;;;;0.00;0.00;;;;;;;;;;5072373;28;20815;-76
2022/01/15 12:09:38;;;;;;;0.00;0.00;;;;;;;;;;5058325;28;20228;-76
2022/01/15 12:12:28;;;;;;;0.00;0.00;;;;;;;;;;5076706;28;20670;-74
2022/01/15 12:14:59;;;;;;;0.00;0.00;;;;;;;;;;5069390;28;20223;-76
2022/01/15 12:17:30;;;;;;;0.00;0.00;;;;;;;;;;5067739;28;20224;-75
2022/01/15 12:19:59;;;;;;;0.00;0.00;;;;;;;;;;5079749;28;20251;-76
2022/01/15 12:22:37;;;;;;;0.00;0.00;;;;;;;;;;5085557;28;20198;-75
2022/01/15 12:25:07;;;;;;;0.00;0.00;;;;;;;;;;5075915;28;20204;-74
2022/01/15 12:27:36;;;;;;;0.00;0.00;;;;;;;;;;5066849;28;20624;-73
2022/01/15 12:30:10;;;;;;;0.00;0.00;;;;;;;;;;5070022;28;20215;-76
2022/01/15 12:32:41;;;;;;;0.00;0.00;;;;;;;;;;5074620;28;20202;-74
2022/01/15 12:35:15;;;;;;;0.00;0.00;;;;;;;;;;5077786;28;20218;-73
2022/01/15 12:37:54;;;;;;;0.00;0.00;;;;;;;;;;5076193;28;20596;-75
2022/01/15 12:40:28;;;;;;;0.00;0.00;;;;;;;;;;5080596;28;20190;-73
2022/01/15 12:42:57;;;;;;;0.00;0.00;;;;;;;;;;5077361;28;20194;-75
2022/01/15 12:45:25;;;;;;;0.00;0.00;;;;;;;;;;5070772;28;20219;-74
2022/01/15 12:47:54;;;;;;;0.00;0.00;;;;;;;;;;5076056;28;20230;-75
2022/01/15 12:50:23;;;;;;;0.00;0.00;;;;;;;;;;5074806;28;20211;-74
2022/01/15 12:52:59;;;;;;;0.00;0.00;;;;;;;;;;5081337;28;20198;-73
2022/01/15 12:55:32;;;;;;;0.00;0.00;;;;;;;;;;5076175;28;20738;-75
2022/01/15 12:58:01;;;;;;;0.00;0.00;;;;;;;;;;5061825;28;20280;-75
2022/01/15 13:00:31;;;;;;;0.00;0.00;;;;;;;;;;5076167;28;20727;-76
2022/01/15 13:03:00;;;;;;;0.00;0.00;;;;;;;;;;5078222;28;20626;-74
2022/01/15 13:05:30;;;;;;;0.00;0.00;;;;;;;;;;5070077;28;20225;-75
2022/01/15 13:08:00;;;;;;;0.00;0.00;;;;;;;;;;5093192;28;20214;-75
2022/01/15 13:10:34;;;;;;;0.00;0.00;;;;;;;;;;5078044;28;20202;-76
2022/01/15 13:13:03;;;;;;;0.00;0.00;;;;;;;;;;5076149;28;20201;-74
2022/01/15 13:15:32;;;;;;;0.00;0.00;;;;;;;;;;5088662;28;20218;-73
2022/01/15 13:18:00;;;;;;;0.00;0.00;;;;;;;;;;5081804;28;20265;-75
2022/01/15 13:20:30;;;;;;;0.00;0.00;;;;;;;;;;5076084;28;20272;-73
2022/01/15 13:22:59;;;;;;;0.00;0.00;;;;;;;;;;5077574;28;20279;-73
2022/01/15 13:25:29;;;;;;;0.00;0.00;;;;;;;;;;5074345;28;20202;-73
2022/01/15 13:27:58;;;;;;;0.00;0.00;;;;;;;;;;5073445;28;20218;-73
2022/01/15 13:30:27;;;;;;;0.00;0.00;;;;;;;;;;5075021;28;20202;-73
2022/01/15 13:32:57;;;;;;;0.00;0.00;;;;;;;;;;5076055;28;20189;-72
2022/01/15 13:35:29;;;;;;;0.00;0.00;;;;;;;;;;5074865;28;20226;-73
2022/01/15 13:37:59;;;;;;;0.00;0.00;;;;;;;;;;5075701;28;20271;-71
2022/01/15 13:40:32;;;;;;;0.00;0.00;;;;;;;;;;5070621;28;20564;-72
2022/01/15 13:43:02;;;;;;;0.00;0.00;;;;;;;;;;5076408;28;20209;-72
2022/01/15 13:45:32;;;;;;;0.00;0.00;;;;;;;;;;5074695;28;20210;-73
2022/01/15 13:48:14;;;;;;;0.00;0.00;;;;;;;;;;5075486;28;20830;-72
2022/01/15 13:53:41;;;;;;;0.00;0.00;;;;;;;;;;5082596;28;20267;-75
2022/01/15 13:56:15;;;;;;;0.00;0.00;;;;;;;;;;5074287;28;20219;-75
2022/01/15 13:58:45;;;;;;;0.00;0.00;;;;;;;;;;5071478;28;20284;-74
2022/01/15 14:01:18;;;;;;;0.00;0.00;;;;;;;;;;5074753;28;20264;-74
2022/01/15 14:03:47;;;;;;;0.00;0.00;;;;;;;;;;5070074;28;20569;-74
2022/01/15 14:06:15;;;;;;;0.00;0.00;;;;;;;;;;5075026;28;20605;-72
2022/01/15 14:08:47;;;;;;;0.00;0.00;;;;;;;;;;5071560;28;20222;-74
2022/01/15 14:11:16;;;;;;;0.00;0.00;;;;;;;;;;5078106;28;20288;-72
2022/01/15 14:13:46;;;;;;;0.00;0.00;;;;;;;;;;5085355;28;20202;-75
2022/01/15 14:16:22;;;;;;;0.00;0.00;;;;;;;;;;5072688;28;20225;-73
2022/01/15 14:18:54;;;;;;;0.00;0.00;;;;;;;;;;5066212;28;20225;-72
2022/01/15 14:21:42;;;;;;;0.00;0.00;;;;;;;;;;5073309;28;20352;-73
2022/01/15 14:24:18;;;;;;;0.00;0.00;;;;;;;;;;5062819;28;20199;-75
2022/01/15 14:26:47;;;;;;;0.00;0.00;;;;;;;;;;5064624;28;20244;-74
2022/01/15 14:29:17;;;;;;;0.00;0.00;;;;;;;;;;5071756;28;20202;-75
2022/01/15 14:31:45;;;;;;;0.00;0.00;;;;;;;;;;5069897;28;20658;-73
2022/01/15 14:34:15;;;;;;;0.00;0.00;;;;;;;;;;5056516;28;20195;-72
2022/01/15 14:36:43;;;;;;;0.00;0.00;;;;;;;;;;5061481;28;20219;-73
2022/01/15 14:39:14;;;;;;;0.00;0.00;;;;;;;;;;5072912;28;20211;-72
2022/01/15 14:41:43;;;;;;;0.00;0.00;;;;;;;;;;5071791;28;20199;-75
2022/01/15 14:44:11;;;;;;;0.00;0.00;;;;;;;;;;5071667;28;20264;-72
2022/01/15 14:46:41;;;;;;;0.00;0.00;;;;;;;;;;5081936;28;20623;-71
2022/01/15 14:49:09;;;;;;;0.00;0.00;;;;;;;;;;5079992;28;20234;-74
2022/01/15 14:51:38;;;;;;;0.00;0.00;;;;;;;;;;5069520;28;20201;-74
2022/01/15 14:54:06;;;;;;;0.00;0.00;;;;;;;;;;5058636;28;20718;-74
2022/01/15 14:56:35;;;;;;;0.00;0.00;;;;;;;;;;5071186;28;20215;-73
2022/01/15 14:59:03;;;;;;;0.00;0.00;;;;;;;;;;5071150;28;20615;-71
2022/01/15 15:01:32;;;;;;;0.00;0.00;;;;;;;;;;5077682;28;20796;-73
2022/01/15 15:04:02;;;;;;;0.00;0.00;;;;;;;;;;5066625;28;20199;-75
2022/01/15 15:06:31;;;;;;;0.00;0.00;;;;;;;;;;5079812;28;20202;-72
2022/01/15 15:09:00;;;;;;;0.00;0.00;;;;;;;;;;5059875;28;20219;-74
2022/01/15 15:11:30;;;;;;;0.00;0.00;;;;;;;;;;5079000;28;20207;-73
2022/01/15 15:14:02;;;;;;;0.00;0.00;;;;;;;;;;5070393;28;20234;-72
2022/01/15 15:16:31;;;;;;;0.00;0.00;;;;;;;;;;5071211;28;20222;-73
2022/01/15 15:19:01;;;;;;;0.00;0.00;;;;;;;;;;5058936;28;20202;-72